createdAt,value
2023-01-11T00:01:52.961Z,90.25
2023-01-11T00:07:55.627Z,89.25
2023-01-11T00:13:57.649Z,90.35
2023-01-11T00:19:59.588Z,89.29
2023-01-11T00:26:13.335Z,89.34
2023-01-11T00:32:15.232Z,90.04
2023-01-11T00:38:37.387Z,90.70
2023-01-11T00:44:57.556Z,90.69
2023-01-11T00:50:59.510Z,90.67
2023-01-11T00:57:01.448Z,91.29
2023-01-11T01:03:03.383Z,92.43
2023-01-11T01:09:05.293Z,91.78
2023-01-11T01:15:08.125Z,91.31
2023-01-11T01:21:09.998Z,90.86
2023-01-11T01:27:16.724Z,90.14
2023-01-11T01:33:18.615Z,90.03
2023-01-11T01:39:20.568Z,90.17
2023-01-11T01:45:26.638Z,91.04
2023-01-11T01:51:43.232Z,91.04
2023-01-11T01:57:45.624Z,91.36
2023-01-11T02:03:48.775Z,90.88
2023-01-11T02:10:15.248Z,91.43
2023-01-11T02:16:17.203Z,91.88
2023-01-11T02:22:41.900Z,91.94
2023-01-11T02:29:31.606Z,91.10
2023-01-11T02:36:04.637Z,91.19
2023-01-11T02:42:37.670Z,91.93
2023-01-11T02:49:00.713Z,91.32
2023-01-11T02:55:04.794Z,92.90
2023-01-11T03:01:07.220Z,92.04
2023-01-11T03:07:30.630Z,92.03
2023-01-11T03:14:18.795Z,92.15
2023-01-11T03:20:38.187Z,93.09
2023-01-11T03:27:03.471Z,92.08
2023-01-11T03:33:15.592Z,92.19
2023-01-11T03:39:44.455Z,92.81
2023-01-11T03:46:00.007Z,92.74
2023-01-11T03:52:05.376Z,93.38
2023-01-11T03:58:09.053Z,93.47
2023-01-11T04:04:10.978Z,92.63
2023-01-11T04:10:12.946Z,92.63
2023-01-11T04:16:14.903Z,93.21
2023-01-11T04:22:16.906Z,92.33
2023-01-11T04:28:18.788Z,92.78
2023-01-11T04:34:20.708Z,92.61
2023-01-11T04:40:23.235Z,93.26
2023-01-11T04:46:25.537Z,92.34
2023-01-11T04:52:27.522Z,92.50
2023-01-11T04:58:30.762Z,92.60
2023-01-11T05:04:32.823Z,92.16
2023-01-11T05:10:34.714Z,92.70
2023-01-11T05:16:37.121Z,92.59
2023-01-11T05:22:39.025Z,92.45
2023-01-11T05:28:40.988Z,93.55
2023-01-11T05:34:42.912Z,94.37
2023-01-11T05:40:44.789Z,95.32
2023-01-11T05:46:46.766Z,95.98
2023-01-11T05:52:48.645Z,96.84
2023-01-11T05:58:51.922Z,97.33
2023-01-11T06:04:55.467Z,98.05
2023-01-11T06:10:57.697Z,98.09
2023-01-11T06:17:02.487Z,98.63
2023-01-11T06:23:04.489Z,100.00
2023-01-11T06:29:06.373Z,100.00
2023-01-11T06:35:08.668Z,100.00
2023-01-11T06:41:12.581Z,100.00
2023-01-11T06:47:14.534Z,100.00
2023-01-11T06:53:16.955Z,100.00
2023-01-11T06:59:18.907Z,100.00
2023-01-11T07:05:21.195Z,100.00
2023-01-11T07:11:23.102Z,100.00
2023-01-11T07:17:25.821Z,100.00
2023-01-11T07:23:27.875Z,99.88
2023-01-11T07:29:29.780Z,100.00
2023-01-11T07:35:31.677Z,100.00
2023-01-11T07:41:52.531Z,100.00
2023-01-11T07:47:54.410Z,100.00
2023-01-11T07:53:56.345Z,99.65
2023-01-11T07:59:58.230Z,100.00
2023-01-11T08:06:00.145Z,100.00
2023-01-11T08:12:20.971Z,100.00
2023-01-11T08:18:22.901Z,100.00
2023-01-11T08:24:25.914Z,100.00
2023-01-11T08:30:28.299Z,100.00
2023-01-11T08:36:32.149Z,100.00
2023-01-11T08:42:34.106Z,100.00
2023-01-11T08:48:36.779Z,100.00
2023-01-11T08:54:38.701Z,100.00
2023-01-11T09:00:40.625Z,100.00
2023-01-11T09:06:42.499Z,100.00
2023-01-11T09:12:44.397Z,100.00
2023-01-11T09:18:46.383Z,100.00
2023-01-11T09:24:48.361Z,100.00
2023-01-11T09:30:52.718Z,100.00
2023-01-11T09:36:56.600Z,100.00
2023-01-11T09:43:01.389Z,100.00
2023-01-11T09:49:04.710Z,100.00
2023-01-11T09:55:15.165Z,100.00
2023-01-11T10:01:45.489Z,100.00
2023-01-11T10:18:23.220Z,100.00
2023-01-11T10:22:04.423Z,100.00
2023-01-11T10:28:25.067Z,100.00
2023-01-11T10:34:50.760Z,100.00
2023-01-11T10:41:06.850Z,100.00
2023-01-11T10:47:17.901Z,100.00
2023-01-11T10:53:29.314Z,100.00
2023-01-11T11:00:05.204Z,100.00
2023-01-11T11:06:38.041Z,100.00
2023-01-11T11:12:59.271Z,100.00
2023-01-11T11:19:01.258Z,100.00
2023-01-11T11:25:15.381Z,100.00
2023-01-11T11:31:17.565Z,100.00
2023-01-11T11:37:44.339Z,100.00
2023-01-11T11:43:47.863Z,100.00
2023-01-11T11:49:49.795Z,100.00
2023-01-11T11:55:53.149Z,100.00
2023-01-11T12:02:05.779Z,100.00
2023-01-11T12:08:15.097Z,100.00
2023-01-11T12:14:24.762Z,100.00
2023-01-11T12:20:30.609Z,100.00
2023-01-11T12:27:01.198Z,100.00
2023-01-11T12:33:27.595Z,100.00
2023-01-11T12:39:52.579Z,100.00
2023-01-11T12:46:33.232Z,100.00
2023-01-11T12:53:01.840Z,100.00
2023-01-11T12:59:34.344Z,100.00
2023-01-11T13:06:12.227Z,100.00
2023-01-11T13:12:42.827Z,100.00
2023-01-11T13:19:04.969Z,100.00
2023-01-11T13:25:31.810Z,100.00
2023-01-11T13:31:35.904Z,100.00
2023-01-11T13:37:51.020Z,100.00
2023-01-11T13:44:22.034Z,100.00
2023-01-11T13:50:52.626Z,100.00
2023-01-11T13:57:30.400Z,100.00
2023-01-11T14:03:53.871Z,100.00
2023-01-11T14:10:39.697Z,100.00
2023-01-11T14:17:02.881Z,98.96
2023-01-11T14:23:16.032Z,95.72
2023-01-11T14:29:40.830Z,94.63
2023-01-11T14:35:51.379Z,94.54
2023-01-11T14:42:35.297Z,92.99
2023-01-11T14:49:11.689Z,92.35
2023-01-11T14:55:31.832Z,91.99
2023-01-11T15:02:04.947Z,90.92
2023-01-11T15:08:15.771Z,91.32
2023-01-11T15:14:28.677Z,90.68
2023-01-11T15:20:33.608Z,91.52
2023-01-11T15:26:49.484Z,89.41
2023-01-11T15:32:51.435Z,89.31
2023-01-11T15:39:05.676Z,89.18
2023-01-11T15:45:19.281Z,91.01
2023-01-11T15:51:48.563Z,91.61
2023-01-11T15:58:22.252Z,92.29
2023-01-11T16:04:53.577Z,89.82
2023-01-11T16:11:37.620Z,90.73
2023-01-11T16:17:44.393Z,90.70
2023-01-11T16:23:46.833Z,92.04
2023-01-11T16:29:51.183Z,90.96
2023-01-11T16:36:14.396Z,90.92
2023-01-11T16:42:16.389Z,90.20
2023-01-11T16:48:22.399Z,91.81
2023-01-11T16:54:32.451Z,92.02
2023-01-11T17:00:39.604Z,92.57
2023-01-11T17:06:41.582Z,93.13
2023-01-11T17:12:47.144Z,93.90
2023-01-11T17:18:49.461Z,94.45
2023-01-11T17:24:59.668Z,93.79
2023-01-11T17:31:02.871Z,93.61
2023-01-11T17:37:13.573Z,94.45
2023-01-11T17:43:44.022Z,94.43
2023-01-11T17:49:50.502Z,93.91
2023-01-11T17:55:58.015Z,94.36
2023-01-11T18:02:13.854Z,94.96
2023-01-11T18:08:21.990Z,95.54
2023-01-11T18:14:31.905Z,94.62
2023-01-11T18:20:37.971Z,94.94
2023-01-11T18:26:42.626Z,94.13
2023-01-11T18:32:44.793Z,93.55
2023-01-11T18:38:46.746Z,93.78
2023-01-11T18:44:49.659Z,92.98
2023-01-11T18:50:54.499Z,93.50
2023-01-11T18:56:56.462Z,92.88
2023-01-11T19:02:58.729Z,93.16
2023-01-11T19:09:00.596Z,92.84
2023-01-11T19:15:02.515Z,91.70
2023-01-11T19:21:14.030Z,90.98
2023-01-11T19:27:16.616Z,92.21
2023-01-11T19:33:19.470Z,93.20
2023-01-11T19:39:21.398Z,93.58
2023-01-11T19:45:24.569Z,94.40
2023-01-11T19:51:26.438Z,94.62
2023-01-11T19:57:28.789Z,94.25
2023-01-11T20:03:30.666Z,94.89
2023-01-11T20:09:32.597Z,94.75
2023-01-11T20:15:36.434Z,96.55
2023-01-11T20:21:38.472Z,97.20
2023-01-11T20:27:40.514Z,98.05
2023-01-11T20:33:42.520Z,97.50
2023-01-11T20:39:44.664Z,98.04
2023-01-11T20:45:56.515Z,95.79
2023-01-11T20:51:58.763Z,95.75
2023-01-11T20:58:00.670Z,95.08
2023-01-11T21:04:06.556Z,93.88
2023-01-11T21:10:09.223Z,93.38
2023-01-11T21:16:24.115Z,93.87
2023-01-11T21:22:27.145Z,93.02
2023-01-11T21:28:29.025Z,91.86
2023-01-11T21:34:30.910Z,91.76
2023-01-11T21:40:34.123Z,90.69
2023-01-11T21:46:36.515Z,91.44
2023-01-11T21:52:38.441Z,91.24
2023-01-11T21:58:40.375Z,91.14
2023-01-11T22:04:42.379Z,91.43
2023-01-11T22:10:44.247Z,90.21
2023-01-11T22:16:46.143Z,91.56
2023-01-11T22:22:48.017Z,90.65
2023-01-11T22:29:16.867Z,90.66
2023-01-11T22:35:19.092Z,89.99
2023-01-11T22:41:22.506Z,90.94
2023-01-11T22:47:24.454Z,90.20
2023-01-11T22:53:26.369Z,89.98
2023-01-11T22:59:28.313Z,89.02
2023-01-11T23:05:30.453Z,89.24
2023-01-11T23:11:56.002Z,87.81
2023-01-11T23:17:57.906Z,88.12
2023-01-11T23:24:02.393Z,87.29
2023-01-11T23:30:04.971Z,87.07
2023-01-11T23:36:07.489Z,87.19
2023-01-11T23:42:26.549Z,87.03
2023-01-11T23:48:28.422Z,87.08
2023-01-11T23:54:32.897Z,87.32
